Pagrindinis puslapis
METAR-TAF:

METAR-TAF

Oro uostai :

Medeljinas, Kolumbija

platuma: 06-13N, ilguma: 075-36W, Aukštis: 1490 m

Dabartinis oras

Ataskaita buvo paskelbta 32 minutes, ne 19:00 UTC
Vėjas 14 kt iš Pietų/Pietvakarių
Temperatūra 30°C
Drėgmė 43%
Slėgis 1017 hPa
Matomumas 10 km arba daugiau
Su prošvaistėmis ne aukštis 3000 ft, aukštai iškilę kamuoliniai debesys.
Liūtis kaimynystėje

METAR: SKMD 251900Z 21014KT 9999 VCSH BKN030TCU 30/16 A3003 RMK TCU VCSH/NE/E

Laikas: 14:32 (19:32 UTC)


TAF: trūkstamas

Orai ataskaitas ir orų prognozės (METAR, TAF).

turimą stotys yra geltonos ir raudonos taškus žemėlapyje.

Perkelti pele per norėdami pamatyti stoties vardą.

Tada spustelėkite, norėdami matyti oro stebėjimo ir prognozės.

Norėdami pakeisti žemėlapį: spustelėkite ant žalios mygtukų su juodo kryžiaus žemyn,; žalią mygtuką su brūkšneliu, jei norite nutolinti; arba žalių rodyklių gretimoms žemėlapius.


METAR-TAF: